Time;durP1;ratioP1;P1;durP2;ratioP2;P2;SDS_P1;SDS_P2;PMS_P1;PMS_P2;Temp;Humidity;BMP_temperature;BMP_pressure;BME280_temperature;BME280_humidity;BME280_pressure;Samples;Min_cycle;Max_cycle;Signal;HPM_P1;HPM_P2
2022/06/18 00:00:56;;;;;;;6.53;5.93;;;18.20;99.90;;;;;;5032311;28;21805;-51
2022/06/18 00:03:23;;;;;;;10.33;6.10;;;18.20;99.90;;;;;;5042112;28;20443;-50
2022/06/18 00:05:51;;;;;;;6.70;6.10;;;18.10;99.90;;;;;;5038393;28;20946;-51
2022/06/18 00:08:24;;;;;;;7.77;6.20;;;18.10;99.90;;;;;;5034398;28;20765;-50
2022/06/18 00:13:47;;;;;;;6.40;5.80;;;18.00;99.90;;;;;;5029594;28;20488;-56
2022/06/18 00:16:15;;;;;;;7.00;5.87;;;18.00;99.90;;;;;;5028703;28;20477;-50
2022/06/18 00:18:41;;;;;;;5.97;5.43;;;17.90;99.90;;;;;;5041788;28;20777;-51
2022/06/18 00:21:09;;;;;;;8.53;5.80;;;17.90;99.90;;;;;;5030137;28;20428;-50
2022/06/18 00:23:37;;;;;;;16.23;6.20;;;17.80;99.90;;;;;;5030262;28;20422;-50
2022/06/18 00:26:03;;;;;;;8.00;5.97;;;17.80;99.90;;;;;;5034737;28;20442;-51
2022/06/18 00:28:31;;;;;;;6.30;5.53;;;17.80;99.90;;;;;;5035703;28;20946;-50
2022/06/18 00:30:57;;;;;;;9.50;5.87;;;17.80;99.90;;;;;;5027031;28;20199;-51
2022/06/18 00:33:23;;;;;;;7.47;6.00;;;17.80;99.90;;;;;;5031233;28;20500;-51
2022/06/18 00:35:51;;;;;;;7.60;5.60;;;17.80;99.90;;;;;;5024774;28;21024;-51
2022/06/18 00:38:35;;;;;;;11.07;6.30;;;17.70;99.90;;;;;;5032097;28;20429;-50
2022/06/18 00:41:01;;;;;;;9.40;6.97;;;17.80;99.90;;;;;;5033308;28;20439;-50
2022/06/18 00:43:29;;;;;;;9.57;6.10;;;17.70;99.90;;;;;;5031322;28;20762;-51
2022/06/18 00:46:18;;;;;;;6.90;6.20;;;17.60;99.90;;;;;;5025605;28;20492;-50
2022/06/18 00:48:55;;;;;;;6.33;5.73;;;17.60;99.90;;;;;;5030701;28;20428;-51
2022/06/18 00:51:24;;;;;;;6.47;5.83;;;17.60;99.90;;;;;;5029482;28;20448;-53
2022/06/18 00:54:00;;;;;;;6.20;5.60;;;17.70;99.90;;;;;;5029057;28;20437;-54
2022/06/18 00:56:38;;;;;;;7.30;6.20;;;17.70;99.90;;;;;;5025862;28;20823;-54
2022/06/18 00:59:27;;;;;;;9.33;6.30;;;17.80;99.90;;;;;;5030948;28;20457;-53
2022/06/18 01:01:55;;;;;;;7.13;6.00;;;17.70;99.90;;;;;;5033345;28;20441;-54
2022/06/18 01:04:31;;;;;;;7.30;5.90;;;17.70;99.90;;;;;;5040492;28;20445;-53
2022/06/18 01:07:00;;;;;;;6.53;5.57;;;17.60;99.90;;;;;;5036366;28;20441;-53
2022/06/18 01:09:27;;;;;;;7.00;6.30;;;17.60;99.90;;;;;;5039164;28;20874;-53
2022/06/18 01:11:54;;;;;;;6.10;5.37;;;17.60;99.90;;;;;;5030321;28;20439;-53
2022/06/18 01:14:19;;;;;;;6.03;5.53;;;17.50;99.90;;;;;;5027712;28;20488;-53
2022/06/18 01:16:46;;;;;;;8.50;6.80;;;17.50;99.90;;;;;;5032286;28;20479;-53
2022/06/18 01:19:23;;;;;;;6.63;6.03;;;17.50;99.90;;;;;;5037168;28;20477;-53
2022/06/18 01:22:18;;;;;;;8.27;6.77;;;17.50;99.90;;;;;;5028081;28;20433;-53
2022/06/18 01:24:44;;;;;;;8.20;6.00;;;17.40;99.90;;;;;;5032563;28;20435;-54
2022/06/18 01:27:11;;;;;;;6.20;5.60;;;17.40;99.90;;;;;;5029937;28;20877;-53
2022/06/18 01:29:38;;;;;;;6.83;5.97;;;17.30;99.90;;;;;;5027427;28;20807;-53
2022/06/18 01:32:06;;;;;;;8.10;6.60;;;17.30;99.90;;;;;;5028666;28;20430;-53
2022/06/18 01:34:32;;;;;;;7.17;6.17;;;17.30;99.90;;;;;;5033469;28;21002;-54
2022/06/18 01:37:00;;;;;;;12.30;6.50;;;17.30;99.90;;;;;;5034158;28;20574;-53
2022/06/18 01:39:32;;;;;;;7.30;6.60;;;17.20;99.90;;;;;;5024990;28;20593;-53
2022/06/18 01:42:03;;;;;;;6.50;5.77;;;17.20;99.90;;;;;;5027289;28;20445;-53
2022/06/18 01:44:38;;;;;;;6.50;5.90;;;17.20;99.90;;;;;;5026289;28;20438;-53
2022/06/18 01:47:18;;;;;;;6.67;6.00;;;17.20;99.90;;;;;;5023810;28;20425;-53
2022/06/18 01:50:18;;;;;;;8.73;6.60;;;17.20;99.90;;;;;;5032463;28;20451;-54
2022/06/18 01:52:47;;;;;;;7.67;6.10;;;17.20;99.90;;;;;;5029936;28;20490;-53
2022/06/18 01:55:26;;;;;;;7.63;6.23;;;17.20;99.90;;;;;;5028073;28;20448;-53
2022/06/18 01:57:58;;;;;;;6.57;5.83;;;17.20;99.90;;;;;;5026486;28;20477;-53
2022/06/18 02:00:27;;;;;;;8.17;5.80;;;17.20;99.90;;;;;;5032938;28;20433;-54
2022/06/18 02:02:53;;;;;;;5.67;5.00;;;17.10;99.90;;;;;;5028975;28;20528;-53
2022/06/18 02:05:20;;;;;;;11.63;6.00;;;17.10;99.90;;;;;;5026806;28;20540;-53
2022/06/18 02:07:48;;;;;;;9.30;6.40;;;17.10;99.90;;;;;;5030916;28;20202;-53
2022/06/18 02:10:22;;;;;;;7.23;5.90;;;17.00;99.90;;;;;;5034914;28;20456;-53
2022/06/18 02:12:48;;;;;;;9.10;6.13;;;17.00;99.90;;;;;;5034994;28;20524;-53
2022/06/18 02:15:26;;;;;;;6.53;5.90;;;17.00;99.90;;;;;;5024666;28;20477;-53
2022/06/18 02:17:52;;;;;;;6.30;5.70;;;17.00;99.90;;;;;;5030292;28;20548;-53
2022/06/18 02:20:26;;;;;;;9.53;6.40;;;17.00;99.90;;;;;;5021035;28;20458;-52
2022/06/18 02:22:55;;;;;;;8.23;6.37;;;17.00;99.90;;;;;;5054991;28;20432;-53
2022/06/18 02:25:24;;;;;;;6.80;5.73;;;17.00;99.90;;;;;;5031963;28;21228;-53
2022/06/18 02:27:57;;;;;;;7.00;6.30;;;17.00;99.90;;;;;;5033211;28;20433;-53
2022/06/18 02:30:26;;;;;;;7.10;5.83;;;17.00;99.90;;;;;;5029118;28;20421;-53
2022/06/18 02:33:16;;;;;;;6.50;5.90;;;17.00;99.90;;;;;;5058693;28;20951;-53
2022/06/18 02:35:42;;;;;;;6.47;5.80;;;17.00;99.90;;;;;;5023689;28;20492;-53
2022/06/18 02:38:20;;;;;;;11.53;6.50;;;17.00;99.90;;;;;;5023474;28;20500;-53
2022/06/18 02:40:46;;;;;;;8.20;6.40;;;17.00;99.90;;;;;;5037199;28;20436;-53
2022/06/18 02:43:13;;;;;;;6.40;5.77;;;17.00;99.90;;;;;;5026098;28;20937;-53
2022/06/18 02:45:39;;;;;;;6.73;5.93;;;17.00;99.90;;;;;;5035741;28;20240;-53
2022/06/18 02:48:08;;;;;;;7.40;6.20;;;17.00;99.90;;;;;;5034143;28;20781;-54
2022/06/18 02:50:36;;;;;;;8.20;6.43;;;16.90;99.90;;;;;;5031044;28;20441;-53
2022/06/18 02:53:03;;;;;;;7.27;6.10;;;17.00;99.90;;;;;;5029159;28;20526;-53
2022/06/18 02:55:40;;;;;;;6.70;6.00;;;17.00;99.90;;;;;;5033212;28;20477;-53
2022/06/18 02:58:05;;;;;;;12.33;6.37;;;17.00;99.90;;;;;;5032055;28;20524;-53
2022/06/18 03:00:36;;;;;;;9.83;5.90;;;17.10;99.90;;;;;;5037697;28;20911;-53
2022/06/18 03:03:03;;;;;;;8.87;5.80;;;17.10;99.90;;;;;;5032900;28;20182;-53
2022/06/18 03:05:29;;;;;;;6.43;5.80;;;17.00;99.90;;;;;;5033036;28;20446;-53
2022/06/18 03:07:55;;;;;;;6.20;5.60;;;17.00;99.90;;;;;;5032816;28;20491;-53
2022/06/18 03:13:05;;;;;;;8.03;5.90;;;17.00;99.90;;;;;;5032058;28;20586;-53
2022/06/18 03:15:31;;;;;;;8.53;6.00;;;17.00;99.90;;;;;;5023491;28;20528;-53
2022/06/18 03:18:01;;;;;;;6.10;5.50;;;17.00;99.90;;;;;;5036172;28;20592;-54
2022/06/18 03:20:49;;;;;;;7.53;5.70;;;17.00;99.90;;;;;;5031150;28;20613;-53
2022/06/18 03:23:17;;;;;;;7.33;5.90;;;17.00;99.90;;;;;;5030707;28;20449;-53
2022/06/18 03:25:43;;;;;;;5.10;4.70;;;17.00;99.90;;;;;;5060336;28;20437;-53
2022/06/18 03:28:12;;;;;;;6.80;6.10;;;17.00;99.90;;;;;;5038160;28;20931;-53
2022/06/18 03:30:39;;;;;;;6.60;5.47;;;17.00;99.90;;;;;;5038860;28;20467;-53
2022/06/18 03:33:05;;;;;;;6.77;6.00;;;17.10;99.90;;;;;;5033602;28;20520;-53
2022/06/18 03:35:31;;;;;;;8.57;5.83;;;17.10;99.90;;;;;;5027826;28;20442;-53
2022/06/18 03:37:57;;;;;;;6.70;5.47;;;17.10;99.90;;;;;;5037139;28;20480;-53
2022/06/18 03:40:22;;;;;;;6.83;5.67;;;17.10;99.90;;;;;;5035762;28;20438;-53
2022/06/18 03:42:48;;;;;;;7.40;5.00;;;17.10;99.90;;;;;;5028006;28;20732;-55
2022/06/18 03:45:14;;;;;;;5.60;5.00;;;17.20;99.90;;;;;;5062696;28;20696;-54
2022/06/18 03:47:39;;;;;;;5.53;4.70;;;17.30;99.90;;;;;;5034867;28;20194;-54
2022/06/18 03:50:05;;;;;;;8.87;4.70;;;17.40;99.90;;;;;;5040305;28;20541;-54
2022/06/18 03:52:31;;;;;;;5.23;4.00;;;17.60;99.90;;;;;;5042405;28;20201;-53
2022/06/18 03:54:57;;;;;;;4.70;4.30;;;17.90;99.90;;;;;;5033685;28;20437;-54
2022/06/18 03:57:23;;;;;;;5.17;4.27;;;18.20;99.90;;;;;;5026061;28;20300;-53
2022/06/18 03:59:48;;;;;;;5.60;4.00;;;18.50;99.90;;;;;;5035596;28;20302;-53
2022/06/18 04:02:14;;;;;;;6.60;4.10;;;18.70;99.90;;;;;;5032294;28;20190;-53
2022/06/18 04:04:40;;;;;;;6.13;4.60;;;18.80;99.90;;;;;;5034750;28;20641;-53
2022/06/18 04:07:06;;;;;;;5.07;4.00;;;18.90;99.90;;;;;;5033594;28;20269;-53
2022/06/18 04:09:32;;;;;;;11.57;4.00;;;19.10;99.90;;;;;;5029037;28;20269;-53
2022/06/18 04:11:58;;;;;;;6.63;4.13;;;19.30;99.90;;;;;;5030313;28;20810;-53
2022/06/18 04:14:24;;;;;;;8.00;4.00;;;19.30;99.90;;;;;;5036901;28;20983;-53
2022/06/18 04:16:50;;;;;;;4.17;3.80;;;19.30;99.90;;;;;;5042605;28;20488;-53
2022/06/18 04:19:16;;;;;;;4.13;3.83;;;19.40;99.90;;;;;;5031840;28;21073;-53
2022/06/18 04:21:42;;;;;;;6.17;4.37;;;19.50;99.90;;;;;;5034992;28;20325;-53
2022/06/18 04:24:08;;;;;;;8.03;4.20;;;19.70;99.90;;;;;;5028334;28;20186;-53
2022/06/18 04:26:33;;;;;;;6.30;4.23;;;19.70;99.90;;;;;;5033477;28;21036;-53
2022/06/18 04:28:59;;;;;;;5.57;4.00;;;19.80;99.90;;;;;;5041505;28;20328;-53
2022/06/18 04:31:25;;;;;;;7.00;4.00;;;19.90;99.90;;;;;;5033334;28;20199;-57
2022/06/18 04:33:50;;;;;;;4.37;3.97;;;19.90;99.90;;;;;;5033947;28;20222;-53
2022/06/18 04:36:40;;;;;;;4.93;4.53;;;20.00;99.90;;;;;;5067900;28;20215;-53
2022/06/18 04:39:07;;;;;;;5.97;4.63;;;20.00;99.90;;;;;;5034128;28;20224;-53
2022/06/18 04:41:33;;;;;;;4.50;4.10;;;20.00;99.90;;;;;;5029352;28;20438;-53
2022/06/18 04:43:59;;;;;;;8.33;4.20;;;20.10;99.90;;;;;;5032102;28;20452;-54
2022/06/18 04:46:25;;;;;;;4.83;4.40;;;20.20;99.90;;;;;;5040713;28;20209;-55
2022/06/18 04:48:51;;;;;;;4.27;3.87;;;20.20;99.90;;;;;;5017046;28;20735;-53
2022/06/18 04:51:16;;;;;;;4.50;3.90;;;20.30;99.90;;;;;;5023166;28;20190;-53
2022/06/18 04:53:43;;;;;;;5.07;4.50;;;20.40;99.90;;;;;;5036034;28;20229;-53
2022/06/18 04:56:09;;;;;;;5.20;4.70;;;20.50;99.90;;;;;;5036419;28;20211;-53
2022/06/18 04:58:35;;;;;;;4.73;4.33;;;20.50;99.90;;;;;;5031749;28;20470;-53
2022/06/18 05:01:01;;;;;;;5.13;4.20;;;20.60;99.90;;;;;;5031544;28;20448;-53
2022/06/18 05:03:27;;;;;;;4.13;3.80;;;20.70;99.90;;;;;;5036047;28;20191;-53
2022/06/18 05:05:53;;;;;;;3.97;3.67;;;20.70;99.90;;;;;;5027168;28;20992;-53
2022/06/18 05:08:18;;;;;;;7.90;4.37;;;20.90;99.90;;;;;;5027374;28;20434;-54
2022/06/18 05:10:44;;;;;;;4.67;4.17;;;21.00;99.90;;;;;;5035204;28;20326;-54
2022/06/18 05:13:11;;;;;;;5.10;4.37;;;21.00;99.90;;;;;;5035693;28;20227;-54
2022/06/18 05:15:38;;;;;;;7.00;4.50;;;21.10;99.90;;;;;;5018438;28;20565;-54
2022/06/18 05:18:05;;;;;;;5.33;4.70;;;21.20;99.90;;;;;;5034854;28;20599;-53
2022/06/18 05:20:31;;;;;;;5.87;4.60;;;21.20;99.90;;;;;;5034491;28;20434;-53
2022/06/18 05:22:57;;;;;;;9.43;4.80;;;21.30;99.90;;;;;;5031997;28;20436;-54
2022/06/18 05:25:23;;;;;;;5.30;4.17;;;21.30;99.90;;;;;;5037147;28;20437;-54
2022/06/18 05:27:48;;;;;;;5.60;4.57;;;21.40;99.90;;;;;;5029561;28;20697;-54
2022/06/18 05:30:17;;;;;;;5.17;4.10;;;21.50;99.90;;;;;;5035356;28;20194;-53
2022/06/18 05:32:43;;;;;;;6.57;4.80;;;21.60;99.90;;;;;;5031684;28;20640;-53
2022/06/18 05:35:10;;;;;;;5.80;4.60;;;21.70;99.90;;;;;;5026192;28;20429;-53
2022/06/18 05:37:38;;;;;;;5.47;4.70;;;21.70;99.90;;;;;;5033287;28;20576;-54
2022/06/18 05:40:04;;;;;;;5.30;4.50;;;21.80;99.90;;;;;;5025030;28;20438;-53
2022/06/18 05:42:30;;;;;;;5.30;4.63;;;22.00;99.90;;;;;;5033004;28;20437;-54
2022/06/18 05:44:56;;;;;;;9.73;4.83;;;22.20;99.90;;;;;;5030865;28;21168;-54
2022/06/18 05:47:28;;;;;;;4.80;4.30;;;22.20;99.90;;;;;;5036104;28;20213;-54
2022/06/18 05:49:56;;;;;;;5.43;4.50;;;22.30;99.90;;;;;;5032154;28;20195;-53
2022/06/18 05:52:22;;;;;;;7.77;5.00;;;22.40;99.90;;;;;;5014491;28;20458;-53
2022/06/18 05:54:50;;;;;;;5.40;4.80;;;22.50;99.90;;;;;;5041188;28;20444;-54
2022/06/18 05:57:15;;;;;;;4.90;4.43;;;22.70;99.90;;;;;;5020814;28;20470;-54
2022/06/18 05:59:41;;;;;;;8.90;5.40;;;22.90;99.90;;;;;;5036299;28;20491;-53
2022/06/18 06:02:10;;;;;;;4.40;4.10;;;23.10;99.90;;;;;;5033133;28;20695;-55
2022/06/18 06:04:39;;;;;;;9.40;5.87;;;23.20;99.90;;;;;;5037797;28;20266;-54
2022/06/18 06:07:24;;;;;;;5.43;4.93;;;23.30;99.90;;;;;;5037685;28;20537;-54
2022/06/18 06:12:35;;;;;;;6.90;4.90;;;23.50;99.90;;;;;;5033177;28;20452;-53
2022/06/18 06:15:01;;;;;;;6.60;4.83;;;23.60;99.90;;;;;;5025605;28;20478;-53
2022/06/18 06:17:27;;;;;;;14.20;6.50;;;23.60;99.90;;;;;;5028465;28;20211;-54
2022/06/18 06:20:00;;;;;;;8.90;6.13;;;23.80;99.90;;;;;;5026014;28;20445;-54
2022/06/18 06:22:26;;;;;;;10.27;5.63;;;23.90;99.90;;;;;;5035331;28;20483;-54
2022/06/18 06:24:53;;;;;;;7.60;5.10;;;24.00;99.90;;;;;;5032824;28;20791;-54
2022/06/18 06:27:18;;;;;;;8.23;5.80;;;24.00;99.90;;;;;;5029931;28;20915;-54
2022/06/18 06:29:44;;;;;;;16.80;5.90;;;24.30;99.90;;;;;;5033153;28;20525;-54
2022/06/18 06:32:10;;;;;;;9.00;5.23;;;24.30;99.90;;;;;;5029068;28;20194;-54
2022/06/18 06:34:35;;;;;;;6.00;5.47;;;24.30;99.90;;;;;;5033533;28;20218;-54
2022/06/18 06:37:01;;;;;;;13.17;6.70;;;24.60;99.90;;;;;;5031112;28;20241;-54
2022/06/18 06:39:27;;;;;;;6.57;5.53;;;24.60;99.90;;;;;;5029646;28;20260;-53
2022/06/18 06:41:53;;;;;;;6.47;5.60;;;24.70;99.90;;;;;;5024204;28;20190;-54
2022/06/18 06:44:18;;;;;;;9.47;6.27;;;24.90;99.90;;;;;;5028534;28;20194;-54
2022/06/18 06:46:44;;;;;;;7.90;5.60;;;24.90;99.90;;;;;;5032087;28;20537;-54
2022/06/18 06:49:09;;;;;;;10.87;6.50;;;25.00;99.90;;;;;;5025728;28;20187;-54
2022/06/18 06:51:38;;;;;;;8.77;6.50;;;25.10;99.90;;;;;;5030762;28;20262;-55
2022/06/18 06:54:04;;;;;;;10.10;6.57;;;25.30;99.90;;;;;;5030315;28;20296;-54
2022/06/18 06:59:34;;;;;;;7.73;5.77;;;25.40;99.90;;;;;;5022397;28;20437;-54
2022/06/18 07:02:02;;;;;;;7.50;6.00;;;25.80;99.90;;;;;;5029000;28;20900;-54
2022/06/18 07:04:28;;;;;;;6.93;5.50;;;26.00;99.90;;;;;;5031530;28;20213;-54
2022/06/18 07:06:56;;;;;;;10.53;5.93;;;26.20;99.90;;;;;;5027974;28;20927;-55
2022/06/18 07:09:22;;;;;;;7.90;6.17;;;26.10;99.90;;;;;;5035806;28;20473;-54
2022/06/18 07:11:47;;;;;;;9.90;6.27;;;26.30;99.90;;;;;;5034872;28;20875;-54
2022/06/18 07:14:13;;;;;;;10.60;6.20;;;26.40;99.90;;;;;;5042046;28;20291;-54
2022/06/18 07:16:50;;;;;;;12.00;7.17;;;26.60;99.90;;;;;;5034119;28;20226;-54
2022/06/18 07:19:17;;;;;;;11.80;6.27;;;26.60;99.90;;;;;;5030240;28;20239;-54
2022/06/18 07:21:43;;;;;;;7.80;6.80;;;26.50;99.90;;;;;;5035501;28;20440;-54
2022/06/18 07:24:08;;;;;;;13.43;7.20;;;26.70;99.90;;;;;;5033856;28;20435;-54
2022/06/18 07:26:34;;;;;;;9.87;7.90;;;26.70;99.90;;;;;;5031928;28;20556;-54
2022/06/18 07:29:00;;;;;;;7.63;6.73;;;26.70;99.90;;;;;;5045725;28;20190;-54
2022/06/18 07:31:29;;;;;;;10.83;7.10;;;26.70;99.90;;;;;;5031100;28;20197;-55
2022/06/18 07:33:55;;;;;;;10.93;7.87;;;26.60;99.90;;;;;;5031538;28;20198;-54
2022/06/18 07:36:21;;;;;;;10.20;6.87;;;26.70;99.90;;;;;;5030184;28;20519;-54
2022/06/18 07:38:47;;;;;;;7.40;5.87;;;26.80;99.90;;;;;;5030780;28;20460;-54
2022/06/18 07:41:16;;;;;;;11.17;7.10;;;27.10;99.90;;;;;;5026971;28;20187;-54
2022/06/18 07:43:46;;;;;;;15.73;7.20;;;27.30;99.90;;;;;;5033784;28;20214;-54
2022/06/18 07:46:12;;;;;;;11.90;7.10;;;27.10;99.90;;;;;;5035498;28;20445;-54
2022/06/18 07:48:39;;;;;;;9.43;6.97;;;27.20;99.90;;;;;;5040988;28;20867;-54
2022/06/18 07:51:06;;;;;;;10.13;7.00;;;27.10;99.90;;;;;;5026699;28;20496;-53
2022/06/18 07:53:32;;;;;;;8.73;6.40;;;27.40;99.90;;;;;;5066749;28;20950;-54
2022/06/18 07:55:58;;;;;;;8.70;7.20;;;27.60;99.90;;;;;;5026251;28;20436;-55
2022/06/18 07:58:26;;;;;;;6.87;5.93;;;27.70;99.90;;;;;;5031760;28;20433;-52
2022/06/18 08:00:53;;;;;;;9.53;6.03;;;27.70;99.90;;;;;;5029138;28;21136;-52
2022/06/18 08:03:19;;;;;;;13.23;6.20;;;28.00;99.90;;;;;;5036079;28;20467;-53
2022/06/18 08:05:46;;;;;;;12.13;7.37;;;28.40;99.90;;;;;;5037736;28;20436;-52
2022/06/18 08:08:13;;;;;;;7.00;6.30;;;28.30;99.90;;;;;;5036465;28;20448;-52
2022/06/18 08:10:40;;;;;;;11.70;7.23;;;28.60;99.90;;;;;;5030986;28;20517;-52
2022/06/18 08:13:06;;;;;;;12.67;7.27;;;28.70;99.90;;;;;;5037303;28;20488;-52
2022/06/18 08:15:32;;;;;;;9.40;7.37;;;28.80;99.90;;;;;;5036614;28;20477;-52
2022/06/18 08:17:59;;;;;;;10.70;6.90;;;28.90;99.90;;;;;;5040091;28;20566;-52
2022/06/18 08:20:25;;;;;;;9.10;6.80;;;28.90;99.90;;;;;;5033275;28;20438;-53
2022/06/18 08:22:55;;;;;;;7.17;6.40;;;29.10;99.90;;;;;;5037100;28;20442;-53
2022/06/18 08:25:23;;;;;;;10.17;6.93;;;29.30;99.90;;;;;;5032019;28;20432;-53
2022/06/18 08:27:51;;;;;;;9.40;6.40;;;29.50;99.90;;;;;;5036998;28;20437;-52
2022/06/18 08:30:17;;;;;;;7.83;7.00;;;29.60;99.90;;;;;;5033436;28;20496;-52
2022/06/18 08:32:44;;;;;;;12.00;7.60;;;29.80;99.90;;;;;;5034493;28;20492;-54
2022/06/18 08:35:10;;;;;;;11.63;8.50;;;29.70;99.90;;;;;;5046092;28;20445;-55
2022/06/18 08:37:36;;;;;;;12.67;8.37;;;29.60;99.90;;;;;;5037808;28;20468;-52
2022/06/18 08:40:34;;;;;;;11.37;7.70;;;29.40;99.90;;;;;;5028378;28;20436;-52
2022/06/18 08:43:07;;;;;;;11.40;8.00;;;29.30;99.90;;;;;;5026992;28;20450;-53
2022/06/18 08:45:38;;;;;;;9.33;6.57;;;29.00;99.90;;;;;;5035869;28;20438;-52
2022/06/18 08:48:30;;;;;;;8.80;7.00;;;29.20;99.90;;;;;;5026500;28;20528;-53
2022/06/18 08:51:14;;;;;;;10.00;6.40;;;29.40;99.90;;;;;;5027275;28;20959;-52
2022/06/18 08:54:06;;;;;;;15.67;6.20;;;29.80;99.90;;;;;;5026054;28;20527;-52
2022/06/18 08:56:41;;;;;;;15.27;6.97;;;30.10;99.90;;;;;;5029178;28;20497;-52
2022/06/18 08:59:41;;;;;;;11.67;7.70;;;30.60;99.90;;;;;;5025677;28;20440;-52
2022/06/18 09:02:32;;;;;;;14.73;7.00;;;29.90;99.90;;;;;;5035121;28;20463;-53
2022/06/18 09:05:05;;;;;;;9.30;7.10;;;29.80;99.90;;;;;;5024644;28;21076;-52
2022/06/18 09:07:53;;;;;;;12.67;6.73;;;29.70;99.90;;;;;;5056114;28;20452;-52
2022/06/18 09:10:39;;;;;;;12.40;7.90;;;29.90;99.90;;;;;;5025825;28;20437;-52
2022/06/18 09:13:16;;;;;;;13.97;8.77;;;29.70;99.90;;;;;;5028221;28;20469;-55
2022/06/18 09:15:48;;;;;;;13.20;7.93;;;29.60;99.90;;;;;;5032005;28;20445;-53
2022/06/18 09:18:21;;;;;;;18.13;9.27;;;29.40;99.90;;;;;;5024599;28;20596;-52
2022/06/18 09:21:00;;;;;;;13.67;8.30;;;29.60;99.90;;;;;;5030596;28;20441;-52
2022/06/18 09:23:26;;;;;;;17.53;7.30;;;29.40;99.90;;;;;;5025736;28;20436;-52
2022/06/18 09:25:55;;;;;;;9.93;7.70;;;29.40;99.90;;;;;;5029879;28;20450;-53
2022/06/18 09:28:57;;;;;;;13.17;8.40;;;29.60;99.90;;;;;;5035251;28;20470;-54
2022/06/18 09:31:33;;;;;;;16.17;7.80;;;29.40;99.90;;;;;;5043556;28;20480;-57
2022/06/18 09:34:06;;;;;;;11.17;7.57;;;29.80;99.90;;;;;;5028069;28;20762;-54
2022/06/18 09:36:42;;;;;;;11.70;7.93;;;30.10;99.90;;;;;;5030389;28;20473;-54
2022/06/18 09:39:24;;;;;;;11.13;7.83;;;30.00;99.90;;;;;;5027903;28;20429;-55
2022/06/18 09:42:00;;;;;;;8.70;7.17;;;30.20;99.90;;;;;;5027706;28;20444;-53
2022/06/18 09:44:30;;;;;;;11.87;6.47;;;30.00;99.90;;;;;;5032705;28;20889;-54
2022/06/18 09:47:04;;;;;;;13.53;7.60;;;30.10;99.90;;;;;;5036207;28;20442;-54
2022/06/18 09:49:31;;;;;;;17.70;7.23;;;30.10;99.90;;;;;;5028445;28;20443;-55
2022/06/18 09:52:04;;;;;;;7.83;6.20;;;30.00;99.90;;;;;;5037420;28;20446;-55
2022/06/18 09:54:42;;;;;;;12.33;6.13;;;30.10;99.90;;;;;;5033219;28;20533;-52
2022/06/18 09:57:08;;;;;;;18.43;6.90;;;30.10;99.90;;;;;;5028653;28;20592;-55
2022/06/18 09:59:39;;;;;;;8.10;6.40;;;29.80;99.90;;;;;;5029158;28;20513;-52
2022/06/18 10:02:26;;;;;;;13.57;6.57;;;29.70;99.90;;;;;;5029644;28;20437;-55
2022/06/18 10:07:41;;;;;;;13.50;5.13;;;29.50;99.90;;;;;;5028072;28;20494;-50
2022/06/18 10:10:15;;;;;;;7.50;4.90;;;29.70;99.90;;;;;;5031116;28;20448;-50
2022/06/18 10:12:45;;;;;;;8.70;5.50;;;29.60;99.90;;;;;;5024747;28;20529;-50
2022/06/18 10:15:13;;;;;;;12.20;4.30;;;29.30;99.90;;;;;;5038648;28;20985;-50
2022/06/18 10:18:06;;;;;;;5.50;3.80;;;29.00;99.90;;;;;;5037315;28;20519;-50
2022/06/18 10:20:44;;;;;;;8.40;4.70;;;28.90;99.90;;;;;;5030635;28;20473;-50
2022/06/18 10:23:38;;;;;;;7.50;4.10;;;29.20;99.90;;;;;;5034791;28;20440;-50
2022/06/18 10:26:13;;;;;;;9.90;3.60;;;29.60;99.90;;;;;;5037764;28;20440;-49
2022/06/18 10:28:57;;;;;;;11.57;4.50;;;29.60;99.90;;;;;;5029801;28;20864;-50
2022/06/18 10:31:37;;;;;;;8.87;4.27;;;29.40;99.90;;;;;;5030503;28;20453;-49
2022/06/18 10:34:12;;;;;;;9.27;3.90;;;29.20;99.90;;;;;;5039506;28;20468;-49
2022/06/18 10:37:19;;;;;;;5.67;4.23;;;29.20;99.90;;;;;;5028324;28;20490;-49
2022/06/18 10:39:54;;;;;;;8.50;4.13;;;29.40;99.90;;;;;;5031808;28;20528;-49
2022/06/18 10:42:25;;;;;;;4.50;3.50;;;29.60;99.90;;;;;;5034187;28;20432;-49
2022/06/18 10:44:58;;;;;;;6.97;3.27;;;29.30;99.90;;;;;;5034291;28;20441;-49
2022/06/18 10:47:34;;;;;;;5.63;2.90;;;29.50;99.90;;;;;;5031445;28;20850;-49
2022/06/18 10:50:04;;;;;;;6.33;3.70;;;29.70;99.90;;;;;;5041060;28;20444;-49
2022/06/18 10:52:29;;;;;;;11.60;3.33;;;30.00;99.90;;;;;;5039524;28;21255;-49
2022/06/18 10:55:16;;;;;;;6.47;3.70;;;30.00;99.90;;;;;;5037766;28;20419;-49
2022/06/18 10:57:42;;;;;;;5.20;3.60;;;29.80;99.90;;;;;;5040039;28;20210;-50
2022/06/18 11:00:13;;;;;;;10.47;3.30;;;30.00;99.90;;;;;;5037235;28;20462;-50
2022/06/18 11:02:40;;;;;;;4.60;2.30;;;30.60;99.90;;;;;;5035390;28;20517;-50
2022/06/18 11:05:28;;;;;;;6.70;2.60;;;30.60;99.90;;;;;;5046161;28;20417;-50
2022/06/18 11:07:55;;;;;;;4.73;2.83;;;30.40;99.90;;;;;;5035927;28;20426;-50
2022/06/18 11:10:46;;;;;;;5.17;3.10;;;30.50;99.90;;;;;;5041047;28;20417;-50
2022/06/18 11:13:44;;;;;;;5.47;2.53;;;30.30;99.90;;;;;;5067720;28;21013;-50
2022/06/18 11:16:18;;;;;;;9.30;4.53;;;30.40;99.90;;;;;;5033736;28;20457;-50
2022/06/18 11:18:50;;;;;;;6.90;3.30;;;30.20;99.90;;;;;;5024845;28;20520;-50
2022/06/18 11:21:25;;;;;;;4.63;2.80;;;30.20;99.90;;;;;;5033647;28;21076;-50
2022/06/18 11:24:05;;;;;;;4.40;3.00;;;29.90;99.90;;;;;;5030485;28;20428;-50
2022/06/18 11:26:32;;;;;;;5.40;2.50;;;30.00;99.90;;;;;;5035639;28;20433;-52
2022/06/18 11:29:10;;;;;;;4.73;2.20;;;29.80;99.90;;;;;;5040755;28;20437;-49
2022/06/18 11:31:43;;;;;;;5.77;2.77;;;29.80;99.90;;;;;;5041445;28;20464;-49
2022/06/18 11:34:22;;;;;;;3.80;2.07;;;30.10;99.90;;;;;;5038949;28;20471;-49
2022/06/18 11:36:54;;;;;;;5.60;2.00;;;30.10;99.90;;;;;;5038126;28;20479;-50
2022/06/18 11:39:33;;;;;;;2.50;1.80;;;30.20;99.90;;;;;;5037406;28;20429;-50
2022/06/18 11:42:26;;;;;;;2.23;1.83;;;30.20;99.90;;;;;;5038021;28;20434;-50
2022/06/18 11:45:26;;;;;;;2.10;1.70;;;30.30;99.90;;;;;;5034537;28;20446;-50
2022/06/18 11:48:04;;;;;;;6.97;1.73;;;30.40;99.90;;;;;;5031891;28;20442;-52
2022/06/18 11:50:42;;;;;;;4.13;2.40;;;30.70;99.90;;;;;;5024751;28;20446;-52
2022/06/18 11:53:31;;;;;;;3.57;2.10;;;30.20;99.90;;;;;;5038122;28;20438;-50
2022/06/18 11:55:58;;;;;;;3.47;2.77;;;30.20;99.90;;;;;;5038968;28;20953;-51
2022/06/18 11:58:36;;;;;;;3.87;1.90;;;30.80;99.90;;;;;;5039923;28;20476;-50
2022/06/18 12:01:25;;;;;;;1.90;1.77;;;31.40;99.90;;;;;;5031933;28;20464;-52
2022/06/18 12:03:59;;;;;;;4.20;1.97;;;31.40;99.90;;;;;;5034185;28;20935;-52
2022/06/18 12:06:36;;;;;;;2.90;1.50;;;31.80;99.90;;;;;;5038790;28;20425;-52
2022/06/18 12:09:02;;;;;;;2.20;1.67;;;31.90;99.90;;;;;;5042261;28;20479;-53
2022/06/18 12:11:48;;;;;;;2.47;1.90;;;32.10;99.90;;;;;;5031831;28;21038;-52
2022/06/18 12:14:25;;;;;;;3.00;1.50;;;31.70;99.90;;;;;;5040446;28;20238;-53
2022/06/18 12:16:57;;;;;;;4.00;2.00;;;31.40;99.90;;;;;;5044726;28;21205;-52
2022/06/18 12:19:35;;;;;;;1.53;1.43;;;31.30;99.90;;;;;;5038144;28;20822;-52
2022/06/18 12:22:30;;;;;;;4.30;1.87;;;31.10;99.90;;;;;;5043001;28;20417;-52
2022/06/18 12:25:09;;;;;;;1.93;1.70;;;30.90;99.90;;;;;;5034289;28;20449;-52
2022/06/18 12:27:52;;;;;;;2.90;1.80;;;30.80;99.90;;;;;;5038855;28;20489;-52
2022/06/18 12:30:28;;;;;;;2.40;1.30;;;30.80;99.90;;;;;;5044165;28;20414;-52
2022/06/18 12:32:58;;;;;;;1.70;1.07;;;30.70;99.90;;;;;;5044131;28;20439;-52
2022/06/18 12:35:41;;;;;;;2.67;1.30;;;30.50;99.90;;;;;;5038290;28;20520;-52
2022/06/18 12:38:20;;;;;;;4.90;1.30;;;30.10;99.90;;;;;;5038409;28;20516;-52
2022/06/18 12:40:59;;;;;;;1.40;1.20;;;30.40;99.90;;;;;;5041566;28;20418;-52
2022/06/18 12:43:31;;;;;;;3.17;1.50;;;30.80;99.90;;;;;;5040784;28;20421;-53
2022/06/18 12:45:56;;;;;;;1.93;1.27;;;30.80;99.90;;;;;;5041159;28;20423;-52
2022/06/18 12:48:40;;;;;;;1.43;1.20;;;30.70;99.90;;;;;;5035647;28;20428;-52
2022/06/18 12:51:17;;;;;;;1.20;1.10;;;30.70;99.90;;;;;;5039394;28;20182;-52
2022/06/18 12:53:54;;;;;;;1.87;1.10;;;30.80;99.90;;;;;;5042059;28;20437;-52
2022/06/18 12:56:42;;;;;;;1.50;1.17;;;30.60;99.90;;;;;;5044101;28;20514;-51
2022/06/18 12:59:32;;;;;;;1.23;1.10;;;31.00;99.90;;;;;;5041579;28;20425;-51
2022/06/18 13:01:57;;;;;;;2.43;1.37;;;31.00;99.90;;;;;;5041807;28;20413;-51
2022/06/18 13:04:52;;;;;;;1.53;1.43;;;30.80;99.90;;;;;;5038792;28;20478;-51
2022/06/18 13:07:49;;;;;;;1.30;1.20;;;30.30;99.90;;;;;;5034928;28;20191;-51
2022/06/18 13:10:21;;;;;;;3.83;1.43;;;30.30;99.90;;;;;;4995145;28;20510;-51
2022/06/18 13:13:05;;;;;;;7.27;1.30;;;30.40;99.90;;;;;;5038860;28;20436;-51
2022/06/18 13:15:57;;;;;;;3.77;1.37;;;30.40;99.90;;;;;;5033466;28;20993;-49
2022/06/18 13:18:47;;;;;;;2.50;1.30;;;30.60;99.90;;;;;;5032782;28;20838;-49
2022/06/18 13:21:13;;;;;;;2.53;1.30;;;30.10;99.90;;;;;;5022093;28;20498;-51
2022/06/18 13:29:29;;;;;;;1.30;1.20;;;30.20;99.90;;;;;;5038893;28;20448;-49